Napoli, Italy

1:52 AM CET on March 05, 2015 (GMT +0100)
Napoli | Change Station
CLOSE
Current Station
Personal Weather Station
Location: Napoli, ITALY
Elevation: 564 ft
Nearby Weather Stations
Active Advisory: RainWind

Elev 564 ft 40.85 °N, 14.23 °E | Updated 2 minutes ago

Rain
Rain
52.9 °F
Feels Like 52.9 °F
N
1.0
Wind Variable Wind from SSW
Gusts 3.0 mph

Today
High -- | Low -- °F
--% Chance of Precip.
Yesterday
High -- | Low -- °F
Precip. -- in
6:31 AM 5:58 PM
Full, 100% visible
Pressure 29.77 in
Visibility 6.2 miles
Clouds Scattered Clouds 2000 ft
Mostly Cloudy 4000 ft
Dew Point 50 °F
Humidity 90%
Rainfall 0.13 in
Snow Depth Not available.
UV 0 out of 12
Pollen Not available.
Air Quality Not available.
Flu Activity Not available.
METAR LIRN 050020Z 31003KT 250V020 9999 SCT020 BKN040 12/11 Q1008

More Conditions Fewer Conditions

Pressure 29.77 in
Visibility 6.2 miles
Clouds Scattered Clouds 2000 ft
Mostly Cloudy 4000 ft
Dew Point 50 °F
Humidity 90%
Rainfall 0.13 in
Snow Depth Not available.
UV 0 out of 12
Pollen Not available.
Air Quality Not available.
Flu Activity Not available.
METAR LIRN 050020Z 31003KT 250V020 9999 SCT020 BKN040 12/11 Q1008

More Conditions Fewer Conditions

10-Day Weather Forecast

Almanac

Astronomy

Mar. 05, 2015 Rise Set
Actual Time
Civil Twilight
Nautical Twilight
Astronomical Twilight
Moon
Length of Visible Light
Length of Day
Tomorrow will be .
, % of the Moon is Illuminated

Today's Extremes

Country Highs Country Lows

Community

WunderPhotos

Upload Photos

1,802,608 photos uploaded!

WunderBlogs® & News

Nearby

Air Quality

  Air Quality AQ Index Pollutant
Not available.

Snow Depth

Station Depth Elevation

Earthquake Activity

City Distance Mag. Time & Date
Minimum magnitude displayed is 2.5.

Coastal Water Temperatures

Place Temperature

Nearby Weather Stations